WetterOnline ( https://www.wetteronline.de )

Wetter aktuell Spremberg

Aktuelles Wetter: Hoyerswerda (116m)

6-stündlich | Neueste Meldungen
Ortszeit Temperatur Wetter
Sa, 26.09. 8:00 9.3° C Sprühregen
Sa, 26.09. 2:00 10.8° C leichter Regen
Fr, 25.09. 20:00 12.7° C bedeckt
Fr, 25.09. 14:00 15.8° C bewölkt
Fr, 25.09. 8:00 14.1° C bewölkt
Fr, 25.09. 2:00 12.7° C wolkig
Do, 24.09. 20:00 18.7° C wolkig
Do, 24.09. 14:00 23.0° C wolkig
Ortszeit Temperatur Wetter
Sa, 26.09. 10:00 9.3° C Regen
Sa, 26.09. 9:50 9.3° C Regen
Sa, 26.09. 9:40 9.3° C Sprühregen
Sa, 26.09. 9:30 9.3° C Sprühregen
Sa, 26.09. 9:20 9.3° C Sprühregen
Sa, 26.09. 9:10 9.3° C Sprühregen
Sa, 26.09. 9:00 9.2° C Sprühregen
Sa, 26.09. 8:30 9.2° C leichter Regen
Sa, 26.09. 8:00 9.3° C Sprühregen
Ortszeit Relative Feuchte Sichtweite
Sa, 26.09. 8:00 97% 3.9 km
Sa, 26.09. 2:00 82% 45 km
Fr, 25.09. 20:00 94% 50 km
Fr, 25.09. 14:00 88% 45 km
Fr, 25.09. 8:00 90% 35 km
Fr, 25.09. 2:00 89% 30 km
Do, 24.09. 20:00 61% 55 km
Do, 24.09. 14:00 53% 60 km
Ortszeit Relative Feuchte Sichtweite
Sa, 26.09. 10:00 97% 3.0 km
Sa, 26.09. 9:50 97% -
Sa, 26.09. 9:40 97% -
Sa, 26.09. 9:30 97% 2.8 km
Sa, 26.09. 9:20 97% -
Sa, 26.09. 9:10 97% -
Sa, 26.09. 9:00 97% 3.0 km
Sa, 26.09. 8:30 97% 2.8 km
Sa, 26.09. 8:00 97% 3.9 km
Ortszeit Niederschlagsmenge Niederschlagsart
Sa, 26.09. 8:00 6 l/m2 in 12 Std. Regen
Sa, 26.09. 2:00 0.4 l/m2 in 6 Std. Regen
Fr, 25.09. 20:00 8 l/m2 in 12 Std. Regen
Fr, 25.09. 14:00 7 l/m2 in 6 Std. Regen
Fr, 25.09. 8:00 0.1 l/m2 in 12 Std. Regen
Fr, 25.09. 2:00 0.0 l/m2 in 6 Std. -
Do, 24.09. 20:00 0.0 l/m2 in 12 Std. -
Do, 24.09. 14:00 0.0 l/m2 in 6 Std. -
Ortszeit Niederschlagsmenge Niederschlagsart
Sa, 26.09. 10:00 2.2 l/m2 in 1 Std. Regen
Sa, 26.09. 9:50 keine Meldung -
Sa, 26.09. 9:40 keine Meldung -
Sa, 26.09. 9:30 1.1 l/m2 in 1 Std. -
Sa, 26.09. 9:20 keine Meldung -
Sa, 26.09. 9:10 keine Meldung -
Sa, 26.09. 9:00 1.6 l/m2 in 1 Std. Regen
Sa, 26.09. 8:30 0.7 l/m2 in 1 Std. -
Sa, 26.09. 8:00 1.1 l/m2 in 1 Std. Regen
Ortszeit Stärke Spitze Richtung
km/h Bft. km/h Grad Sektor
Sa, 26.09. 8:00 17 3 31 300° NW
Sa, 26.09. 2:00 13 3 28 280° W
Fr, 25.09. 20:00 4 1 36 250° W
Fr, 25.09. 14:00 13 3 24 270° W
Fr, 25.09. 8:00 11 2 22 260° W
Fr, 25.09. 2:00 7 2 11 100° O
Do, 24.09. 20:00 7 2 36 190° S
Do, 24.09. 14:00 22 4 43 270° W
Ortszeit Stärke Spitze Richtung
km/h Bft. km/h Grad Sektor
Sa, 26.09. 10:00 22 4 32 310° NW
Sa, 26.09. 9:50 22 4 - 310° NW
Sa, 26.09. 9:40 22 4 - 300° NW
Sa, 26.09. 9:30 22 4 32 300° NW
Sa, 26.09. 9:20 22 4 - 300° NW
Sa, 26.09. 9:10 18 3 - 310° NW
Sa, 26.09. 9:00 22 4 31 300° NW
Sa, 26.09. 8:30 17 3 26 310° NW
Sa, 26.09. 8:00 17 3 30 300° NW
Ortszeit Untergrenze Bedeckung Gattung
total tief tief mittel hoch
Sa, 26.09. 8:00 210 m 8/8 8/8 - - -
Sa, 26.09. 2:00 720 m 8/8 8/8 - - -
Fr, 25.09. 20:00 1380 m 8/8 8/8 - - -
Fr, 25.09. 14:00 390 m 8/8 6/8 - - -
Fr, 25.09. 8:00 1080 m 7/8 7/8 - - -
Fr, 25.09. 2:00 2700 m 7/8 4/8 - - -
Do, 24.09. 20:00 7500 m 8/8 0/8 - - -
Do, 24.09. 14:00 1230 m 7/8 5/8 - - -
Ortszeit Bedeckungsgrad in Achtel und Wolkenuntergrenze
Sa, 26.09. 10:00 7(150m) 8(270m)
Sa, 26.09. 9:50 7(150m) 8(270m)
Sa, 26.09. 9:40 7(150m) 8(270m)
Sa, 26.09. 9:30 7(150m) 8(270m)
Sa, 26.09. 9:20 7(150m) 8(270m)
Sa, 26.09. 9:10 7(180m)
Sa, 26.09. 9:00 5(180m) 8(270m)
Sa, 26.09. 8:30 6(180m) 8(300m)
Sa, 26.09. 8:00 5(210m) 7(360m) 8(540m)
Ortszeit Luftdruck NN (hPa) Tendenz (hPa in 3 Std.)
Sa, 26.09. 8:00 995 - 1,4
Sa, 26.09. 2:00 997 - 0,9
Fr, 25.09. 20:00 998 0,0
Fr, 25.09. 14:00 997 - 0,1
Fr, 25.09. 8:00 997 - 0,7
Fr, 25.09. 2:00 1002 - 2,7
Do, 24.09. 20:00 1006 - 0,1
Do, 24.09. 14:00 1006 + 0,5
Ortszeit Luftdruck NN (hPa) Tendenz (hPa in 3 Std.)
Sa, 26.09. 10:00 994 - 1,6
Sa, 26.09. 9:50 994 keine Meldung
Sa, 26.09. 9:40 994 keine Meldung
Sa, 26.09. 9:30 994 - 1,5
Sa, 26.09. 9:20 994 keine Meldung
Sa, 26.09. 9:10 994 keine Meldung
Sa, 26.09. 9:00 994 - 1,6
Sa, 26.09. 8:30 995 - 1,3
Sa, 26.09. 8:00 995 - 1,4
Ortszeit Schneehöhe (cm)
Sa, 26.09. 8:00 -
Sa, 26.09. 2:00 -
Fr, 25.09. 20:00 -
Fr, 25.09. 14:00 -
Fr, 25.09. 8:00 -
Fr, 25.09. 2:00 -
Do, 24.09. 20:00 -
Do, 24.09. 14:00 -
Ortszeit Schneehöhe (cm)
Sa, 26.09. 10:00 -
Sa, 26.09. 9:50 -
Sa, 26.09. 9:40 -
Sa, 26.09. 9:30 -
Sa, 26.09. 9:20 -
Sa, 26.09. 9:10 -
Sa, 26.09. 9:00 -
Sa, 26.09. 8:30 -
Sa, 26.09. 8:00 -
Link zu dieser Seite / Seite empfehlen

Das Wetter in ...